sensor_id;sensor_type;location;lat;lon;timestamp;P1;durP1;ratioP1;P2;durP2;ratioP2
37169;SDS011;23062;13.952;100.608;2023-05-08T00:03:20;22.00;;;16.00;;
37169;SDS011;23062;13.952;100.608;2023-05-08T00:07:48;19.00;;;15.00;;
37169;SDS011;23062;13.952;100.608;2023-05-08T00:12:15;21.00;;;15.00;;
37169;SDS011;23062;13.952;100.608;2023-05-08T00:16:40;21.00;;;15.00;;
37169;SDS011;23062;13.952;100.608;2023-05-08T00:21:06;20.00;;;15.00;;
37169;SDS011;23062;13.952;100.608;2023-05-08T00:25:33;23.00;;;16.00;;
37169;SDS011;23062;13.952;100.608;2023-05-08T00:30:02;24.00;;;17.00;;
37169;SDS011;23062;13.952;100.608;2023-05-08T00:34:28;20.00;;;14.00;;
37169;SDS011;23062;13.952;100.608;2023-05-08T00:38:56;21.00;;;15.00;;
37169;SDS011;23062;13.952;100.608;2023-05-08T00:43:23;21.00;;;15.00;;
37169;SDS011;23062;13.952;100.608;2023-05-08T00:47:49;22.00;;;15.87;;
37169;SDS011;23062;13.952;100.608;2023-05-08T00:52:18;26.00;;;20.00;;
37169;SDS011;23062;13.952;100.608;2023-05-08T00:56:48;20.00;;;15.00;;
37169;SDS011;23062;13.952;100.608;2023-05-08T01:01:15;23.00;;;17.00;;
37169;SDS011;23062;13.952;100.608;2023-05-08T01:05:41;19.00;;;15.00;;
37169;SDS011;23062;13.952;100.608;2023-05-08T01:10:08;22.00;;;14.93;;
37169;SDS011;23062;13.952;100.608;2023-05-08T01:29:28;23.00;;;16.00;;
37169;SDS011;23062;13.952;100.608;2023-05-08T01:34:05;22.00;;;15.87;;
37169;SDS011;23062;13.952;100.608;2023-05-08T01:52:36;21.00;;;16.00;;
37169;SDS011;23062;13.952;100.608;2023-05-08T01:57:15;26.00;;;20.00;;
37169;SDS011;23062;13.952;100.608;2023-05-08T02:01:43;25.00;;;19.00;;
37169;SDS011;23062;13.952;100.608;2023-05-08T02:06:11;22.00;;;16.00;;
37169;SDS011;23062;13.952;100.608;2023-05-08T02:10:43;23.00;;;17.00;;
37169;SDS011;23062;13.952;100.608;2023-05-08T02:15:18;22.00;;;16.00;;
37169;SDS011;23062;13.952;100.608;2023-05-08T02:19:49;24.00;;;17.00;;
37169;SDS011;23062;13.952;100.608;2023-05-08T02:24:16;25.00;;;18.00;;
37169;SDS011;23062;13.952;100.608;2023-05-08T02:28:43;23.00;;;16.00;;
37169;SDS011;23062;13.952;100.608;2023-05-08T02:33:12;24.00;;;18.00;;
37169;SDS011;23062;13.952;100.608;2023-05-08T02:37:44;24.00;;;18.00;;
37169;SDS011;23062;13.952;100.608;2023-05-08T02:42:17;24.00;;;18.00;;
37169;SDS011;23062;13.952;100.608;2023-05-08T02:46:46;23.00;;;17.00;;
37169;SDS011;23062;13.952;100.608;2023-05-08T02:55:55;24.00;;;18.00;;
37169;SDS011;23062;13.952;100.608;2023-05-08T03:00:21;22.00;;;17.00;;
37169;SDS011;23062;13.952;100.608;2023-05-08T03:04:55;23.00;;;17.00;;
37169;SDS011;23062;13.952;100.608;2023-05-08T03:09:23;24.00;;;18.00;;
37169;SDS011;23062;13.952;100.608;2023-05-08T03:13:54;23.00;;;17.00;;
37169;SDS011;23062;13.952;100.608;2023-05-08T03:18:21;27.00;;;20.00;;
37169;SDS011;23062;13.952;100.608;2023-05-08T03:22:48;25.00;;;19.00;;
37169;SDS011;23062;13.952;100.608;2023-05-08T03:27:19;22.00;;;17.00;;
37169;SDS011;23062;13.952;100.608;2023-05-08T03:31:47;23.00;;;18.00;;
37169;SDS011;23062;13.952;100.608;2023-05-08T03:36:23;24.00;;;18.00;;
37169;SDS011;23062;13.952;100.608;2023-05-08T03:40:47;25.00;;;18.00;;
37169;SDS011;23062;13.952;100.608;2023-05-08T03:45:16;24.00;;;18.00;;
37169;SDS011;23062;13.952;100.608;2023-05-08T03:49:44;25.00;;;19.00;;
37169;SDS011;23062;13.952;100.608;2023-05-08T03:54:10;25.00;;;19.00;;
37169;SDS011;23062;13.952;100.608;2023-05-08T03:59:05;25.00;;;18.00;;
37169;SDS011;23062;13.952;100.608;2023-05-08T04:03:19;25.00;;;19.00;;
37169;SDS011;23062;13.952;100.608;2023-05-08T04:07:58;25.00;;;19.00;;
37169;SDS011;23062;13.952;100.608;2023-05-08T04:12:19;26.00;;;19.00;;
37169;SDS011;23062;13.952;100.608;2023-05-08T04:16:47;27.00;;;17.33;;
37169;SDS011;23062;13.952;100.608;2023-05-08T04:21:15;26.00;;;19.00;;
37169;SDS011;23062;13.952;100.608;2023-05-08T04:25:46;31.00;;;22.00;;
37169;SDS011;23062;13.952;100.608;2023-05-08T04:30:13;32.00;;;23.00;;
37169;SDS011;23062;13.952;100.608;2023-05-08T04:34:39;32.00;;;25.00;;
37169;SDS011;23062;13.952;100.608;2023-05-08T04:39:07;32.00;;;24.00;;
37169;SDS011;23062;13.952;100.608;2023-05-08T04:43:33;33.00;;;24.00;;
37169;SDS011;23062;13.952;100.608;2023-05-08T04:48:07;30.00;;;23.00;;
37169;SDS011;23062;13.952;100.608;2023-05-08T04:52:35;30.00;;;23.00;;
37169;SDS011;23062;13.952;100.608;2023-05-08T04:57:01;30.00;;;23.00;;
37169;SDS011;23062;13.952;100.608;2023-05-08T05:01:30;31.00;;;24.00;;
37169;SDS011;23062;13.952;100.608;2023-05-08T05:05:58;35.00;;;26.00;;
37169;SDS011;23062;13.952;100.608;2023-05-08T05:10:25;37.00;;;27.00;;
37169;SDS011;23062;13.952;100.608;2023-05-08T05:14:54;32.00;;;25.00;;
37169;SDS011;23062;13.952;100.608;2023-05-08T05:19:25;35.00;;;25.00;;
37169;SDS011;23062;13.952;100.608;2023-05-08T05:23:54;35.00;;;26.00;;
37169;SDS011;23062;13.952;100.608;2023-05-08T05:28:21;36.00;;;26.00;;
37169;SDS011;23062;13.952;100.608;2023-05-08T05:32:48;31.00;;;24.00;;
37169;SDS011;23062;13.952;100.608;2023-05-08T05:37:13;33.00;;;24.00;;
37169;SDS011;23062;13.952;100.608;2023-05-08T05:41:41;29.00;;;21.00;;
37169;SDS011;23062;13.952;100.608;2023-05-08T05:46:10;33.00;;;24.00;;
37169;SDS011;23062;13.952;100.608;2023-05-08T05:50:34;32.00;;;24.00;;
37169;SDS011;23062;13.952;100.608;2023-05-08T05:55:01;32.00;;;23.00;;
37169;SDS011;23062;13.952;100.608;2023-05-08T05:59:30;32.00;;;23.00;;
37169;SDS011;23062;13.952;100.608;2023-05-08T06:03:58;28.00;;;21.00;;
37169;SDS011;23062;13.952;100.608;2023-05-08T06:08:24;30.00;;;22.00;;
37169;SDS011;23062;13.952;100.608;2023-05-08T06:12:49;31.00;;;23.00;;
37169;SDS011;23062;13.952;100.608;2023-05-08T06:17:15;31.00;;;24.00;;
37169;SDS011;23062;13.952;100.608;2023-05-08T06:21:40;32.00;;;23.00;;
37169;SDS011;23062;13.952;100.608;2023-05-08T06:26:11;27.00;;;21.00;;
37169;SDS011;23062;13.952;100.608;2023-05-08T06:30:40;28.00;;;21.00;;
37169;SDS011;23062;13.952;100.608;2023-05-08T06:35:05;32.00;;;24.00;;
37169;SDS011;23062;13.952;100.608;2023-05-08T06:39:30;27.00;;;21.00;;
37169;SDS011;23062;13.952;100.608;2023-05-08T06:43:58;29.00;;;22.00;;
37169;SDS011;23062;13.952;100.608;2023-05-08T06:48:25;28.00;;;22.00;;
37169;SDS011;23062;13.952;100.608;2023-05-08T06:52:52;25.00;;;19.00;;
37169;SDS011;23062;13.952;100.608;2023-05-08T06:57:17;26.00;;;19.00;;
37169;SDS011;23062;13.952;100.608;2023-05-08T07:01:43;28.00;;;21.00;;
37169;SDS011;23062;13.952;100.608;2023-05-08T07:06:09;27.00;;;21.00;;
37169;SDS011;23062;13.952;100.608;2023-05-08T07:10:35;24.00;;;19.00;;
37169;SDS011;23062;13.952;100.608;2023-05-08T07:15:00;24.00;;;19.00;;
37169;SDS011;23062;13.952;100.608;2023-05-08T07:19:25;27.00;;;20.00;;
37169;SDS011;23062;13.952;100.608;2023-05-08T07:23:51;26.00;;;19.00;;
37169;SDS011;23062;13.952;100.608;2023-05-08T07:28:17;23.00;;;18.00;;
37169;SDS011;23062;13.952;100.608;2023-05-08T07:32:43;24.00;;;19.00;;
37169;SDS011;23062;13.952;100.608;2023-05-08T07:37:09;21.00;;;16.00;;
37169;SDS011;23062;13.952;100.608;2023-05-08T07:41:36;27.00;;;19.00;;
37169;SDS011;23062;13.952;100.608;2023-05-08T07:46:03;24.00;;;19.00;;
37169;SDS011;23062;13.952;100.608;2023-05-08T07:50:29;23.00;;;18.00;;
37169;SDS011;23062;13.952;100.608;2023-05-08T07:54:56;24.00;;;17.00;;
37169;SDS011;23062;13.952;100.608;2023-05-08T07:59:22;24.00;;;17.00;;
37169;SDS011;23062;13.952;100.608;2023-05-08T08:03:51;23.00;;;17.00;;
37169;SDS011;23062;13.952;100.608;2023-05-08T08:08:16;21.00;;;14.93;;
37169;SDS011;23062;13.952;100.608;2023-05-08T08:12:49;24.00;;;17.00;;
37169;SDS011;23062;13.952;100.608;2023-05-08T08:17:24;20.00;;;15.00;;
37169;SDS011;23062;13.952;100.608;2023-05-08T08:21:49;22.00;;;16.00;;
37169;SDS011;23062;13.952;100.608;2023-05-08T08:26:15;21.00;;;15.00;;
37169;SDS011;23062;13.952;100.608;2023-05-08T08:30:44;22.00;;;16.00;;
37169;SDS011;23062;13.952;100.608;2023-05-08T08:35:09;21.00;;;16.00;;
37169;SDS011;23062;13.952;100.608;2023-05-08T08:39:42;24.00;;;18.00;;
37169;SDS011;23062;13.952;100.608;2023-05-08T08:44:09;20.00;;;15.00;;
37169;SDS011;23062;13.952;100.608;2023-05-08T08:48:35;21.00;;;16.00;;
37169;SDS011;23062;13.952;100.608;2023-05-08T09:02:29;20.00;;;15.00;;
37169;SDS011;23062;13.952;100.608;2023-05-08T09:07:03;20.00;;;15.00;;
37169;SDS011;23062;13.952;100.608;2023-05-08T09:11:32;19.00;;;12.13;;
37169;SDS011;23062;13.952;100.608;2023-05-08T09:15:59;21.00;;;15.00;;
37169;SDS011;23062;13.952;100.608;2023-05-08T09:20:25;20.00;;;15.00;;
37169;SDS011;23062;13.952;100.608;2023-05-08T09:24:58;21.00;;;15.00;;
37169;SDS011;23062;13.952;100.608;2023-05-08T09:29:28;17.00;;;12.00;;
37169;SDS011;23062;13.952;100.608;2023-05-08T09:33:55;21.00;;;15.00;;
37169;SDS011;23062;13.952;100.608;2023-05-08T09:38:41;19.00;;;13.00;;
37169;SDS011;23062;13.952;100.608;2023-05-08T09:42:59;17.00;;;13.00;;
37169;SDS011;23062;13.952;100.608;2023-05-08T09:47:27;19.00;;;14.00;;
37169;SDS011;23062;13.952;100.608;2023-05-08T09:51:53;17.00;;;13.00;;
37169;SDS011;23062;13.952;100.608;2023-05-08T09:56:36;17.00;;;12.00;;
37169;SDS011;23062;13.952;100.608;2023-05-08T10:01:06;20.00;;;15.00;;
37169;SDS011;23062;13.952;100.608;2023-05-08T10:05:36;21.00;;;15.00;;
37169;SDS011;23062;13.952;100.608;2023-05-08T10:10:05;19.00;;;14.00;;
37169;SDS011;23062;13.952;100.608;2023-05-08T10:14:31;21.00;;;15.00;;
37169;SDS011;23062;13.952;100.608;2023-05-08T10:19:00;22.00;;;16.00;;
37169;SDS011;23062;13.952;100.608;2023-05-08T10:23:32;20.00;;;15.00;;
37169;SDS011;23062;13.952;100.608;2023-05-08T10:32:34;21.00;;;15.00;;
37169;SDS011;23062;13.952;100.608;2023-05-08T10:37:11;23.00;;;17.00;;
37169;SDS011;23062;13.952;100.608;2023-05-08T10:41:37;24.00;;;18.00;;
37169;SDS011;23062;13.952;100.608;2023-05-08T10:46:10;19.00;;;14.00;;
37169;SDS011;23062;13.952;100.608;2023-05-08T10:50:41;17.00;;;12.00;;
37169;SDS011;23062;13.952;100.608;2023-05-08T10:55:25;18.00;;;14.00;;
37169;SDS011;23062;13.952;100.608;2023-05-08T11:00:00;20.00;;;14.00;;
37169;SDS011;23062;13.952;100.608;2023-05-08T11:04:27;16.00;;;12.00;;
37169;SDS011;23062;13.952;100.608;2023-05-08T11:08:53;14.00;;;10.00;;
37169;SDS011;23062;13.952;100.608;2023-05-08T11:13:19;13.00;;;10.00;;
37169;SDS011;23062;13.952;100.608;2023-05-08T11:17:52;13.00;;;10.00;;
37169;SDS011;23062;13.952;100.608;2023-05-08T11:22:19;13.00;;;9.00;;
37169;SDS011;23062;13.952;100.608;2023-05-08T11:26:47;14.00;;;11.00;;
37169;SDS011;23062;13.952;100.608;2023-05-08T11:31:13;10.00;;;7.00;;
37169;SDS011;23062;13.952;100.608;2023-05-08T11:35:40;14.00;;;10.00;;
37169;SDS011;23062;13.952;100.608;2023-05-08T11:40:46;14.00;;;10.00;;
37169;SDS011;23062;13.952;100.608;2023-05-08T11:45:14;12.00;;;9.00;;
37169;SDS011;23062;13.952;100.608;2023-05-08T11:49:44;15.00;;;11.00;;
37169;SDS011;23062;13.952;100.608;2023-05-08T11:54:11;14.00;;;10.00;;
37169;SDS011;23062;13.952;100.608;2023-05-08T11:58:39;13.00;;;10.00;;
37169;SDS011;23062;13.952;100.608;2023-05-08T12:03:07;17.00;;;12.00;;
37169;SDS011;23062;13.952;100.608;2023-05-08T12:07:47;18.00;;;14.00;;
37169;SDS011;23062;13.952;100.608;2023-05-08T12:12:16;24.00;;;17.00;;
37169;SDS011;23062;13.952;100.608;2023-05-08T12:16:43;23.00;;;18.00;;
37169;SDS011;23062;13.952;100.608;2023-05-08T12:21:09;26.00;;;19.00;;
37169;SDS011;23062;13.952;100.608;2023-05-08T12:25:38;25.00;;;16.47;;
37169;SDS011;23062;13.952;100.608;2023-05-08T12:30:08;21.00;;;16.00;;
37169;SDS011;23062;13.952;100.608;2023-05-08T12:34:35;14.00;;;11.00;;
37169;SDS011;23062;13.952;100.608;2023-05-08T12:39:10;17.00;;;12.00;;
37169;SDS011;23062;13.952;100.608;2023-05-08T12:43:38;16.00;;;11.00;;
37169;SDS011;23062;13.952;100.608;2023-05-08T12:48:09;15.00;;;11.00;;
37169;SDS011;23062;13.952;100.608;2023-05-08T12:52:39;13.00;;;10.00;;
37169;SDS011;23062;13.952;100.608;2023-05-08T12:57:17;15.00;;;11.00;;
37169;SDS011;23062;13.952;100.608;2023-05-08T13:01:36;16.00;;;11.00;;
37169;SDS011;23062;13.952;100.608;2023-05-08T13:06:02;16.00;;;11.00;;
37169;SDS011;23062;13.952;100.608;2023-05-08T13:15:13;18.00;;;13.00;;
37169;SDS011;23062;13.952;100.608;2023-05-08T13:19:41;14.00;;;10.00;;
37169;SDS011;23062;13.952;100.608;2023-05-08T13:24:07;19.00;;;14.00;;
37169;SDS011;23062;13.952;100.608;2023-05-08T13:28:42;21.00;;;16.00;;
37169;SDS011;23062;13.952;100.608;2023-05-08T13:33:03;20.00;;;14.00;;
37169;SDS011;23062;13.952;100.608;2023-05-08T13:37:32;20.00;;;14.00;;
37169;SDS011;23062;13.952;100.608;2023-05-08T13:42:02;25.00;;;18.00;;
37169;SDS011;23062;13.952;100.608;2023-05-08T13:46:30;21.00;;;16.00;;
37169;SDS011;23062;13.952;100.608;2023-05-08T13:50:59;22.00;;;17.00;;
37169;SDS011;23062;13.952;100.608;2023-05-08T13:55:26;22.00;;;17.00;;
37169;SDS011;23062;13.952;100.608;2023-05-08T13:59:54;21.00;;;16.00;;
37169;SDS011;23062;13.952;100.608;2023-05-08T14:04:21;21.00;;;16.00;;
37169;SDS011;23062;13.952;100.608;2023-05-08T14:08:47;18.00;;;14.00;;
37169;SDS011;23062;13.952;100.608;2023-05-08T14:13:13;22.00;;;16.00;;
37169;SDS011;23062;13.952;100.608;2023-05-08T14:17:39;18.00;;;13.00;;
37169;SDS011;23062;13.952;100.608;2023-05-08T14:22:05;20.00;;;14.00;;
37169;SDS011;23062;13.952;100.608;2023-05-08T14:26:34;17.00;;;12.00;;
37169;SDS011;23062;13.952;100.608;2023-05-08T14:31:02;17.00;;;12.00;;
37169;SDS011;23062;13.952;100.608;2023-05-08T14:35:36;14.00;;;9.53;;
37169;SDS011;23062;13.952;100.608;2023-05-08T14:40:04;12.00;;;9.00;;
37169;SDS011;23062;13.952;100.608;2023-05-08T14:44:41;13.00;;;10.00;;
37169;SDS011;23062;13.952;100.608;2023-05-08T14:49:02;14.00;;;10.00;;
37169;SDS011;23062;13.952;100.608;2023-05-08T14:53:28;13.00;;;9.00;;
37169;SDS011;23062;13.952;100.608;2023-05-08T14:57:59;14.00;;;10.00;;
37169;SDS011;23062;13.952;100.608;2023-05-08T15:02:25;13.00;;;10.00;;
37169;SDS011;23062;13.952;100.608;2023-05-08T15:06:59;11.00;;;7.47;;
37169;SDS011;23062;13.952;100.608;2023-05-08T15:11:29;12.00;;;9.00;;
37169;SDS011;23062;13.952;100.608;2023-05-08T15:16:03;12.00;;;9.00;;
37169;SDS011;23062;13.952;100.608;2023-05-08T15:20:30;11.00;;;8.00;;
37169;SDS011;23062;13.952;100.608;2023-05-08T15:24:56;13.00;;;8.40;;
37169;SDS011;23062;13.952;100.608;2023-05-08T15:29:23;11.00;;;8.00;;
37169;SDS011;23062;13.952;100.608;2023-05-08T15:33:49;10.00;;;7.00;;
37169;SDS011;23062;13.952;100.608;2023-05-08T15:38:16;11.00;;;8.00;;
37169;SDS011;23062;13.952;100.608;2023-05-08T15:42:42;9.00;;;7.00;;
37169;SDS011;23062;13.952;100.608;2023-05-08T15:47:15;13.00;;;9.00;;
37169;SDS011;23062;13.952;100.608;2023-05-08T15:51:47;13.00;;;10.00;;
37169;SDS011;23062;13.952;100.608;2023-05-08T15:56:19;11.00;;;8.00;;
37169;SDS011;23062;13.952;100.608;2023-05-08T16:00:46;16.00;;;10.40;;
37169;SDS011;23062;13.952;100.608;2023-05-08T16:05:12;12.00;;;9.00;;
37169;SDS011;23062;13.952;100.608;2023-05-08T16:09:39;9.00;;;7.00;;
37169;SDS011;23062;13.952;100.608;2023-05-08T16:14:05;11.00;;;8.00;;
37169;SDS011;23062;13.952;100.608;2023-05-08T16:18:32;12.00;;;9.00;;
37169;SDS011;23062;13.952;100.608;2023-05-08T16:23:00;13.00;;;10.00;;
37169;SDS011;23062;13.952;100.608;2023-05-08T16:27:33;13.00;;;10.00;;
37169;SDS011;23062;13.952;100.608;2023-05-08T16:31:53;12.00;;;9.00;;
37169;SDS011;23062;13.952;100.608;2023-05-08T16:36:22;13.00;;;9.00;;
37169;SDS011;23062;13.952;100.608;2023-05-08T16:40:50;12.00;;;9.00;;
37169;SDS011;23062;13.952;100.608;2023-05-08T16:45:16;12.00;;;8.00;;
37169;SDS011;23062;13.952;100.608;2023-05-08T16:49:45;13.00;;;9.00;;
37169;SDS011;23062;13.952;100.608;2023-05-08T16:54:11;15.00;;;10.00;;
37169;SDS011;23062;13.952;100.608;2023-05-08T16:58:38;13.00;;;10.00;;
37169;SDS011;23062;13.952;100.608;2023-05-08T17:03:05;11.00;;;8.00;;
37169;SDS011;23062;13.952;100.608;2023-05-08T17:07:31;14.00;;;10.00;;
37169;SDS011;23062;13.952;100.608;2023-05-08T17:12:00;13.00;;;10.00;;
37169;SDS011;23062;13.952;100.608;2023-05-08T17:16:27;15.00;;;9.53;;
37169;SDS011;23062;13.952;100.608;2023-05-08T17:20:53;13.00;;;9.00;;
37169;SDS011;23062;13.952;100.608;2023-05-08T17:25:19;13.00;;;9.00;;
37169;SDS011;23062;13.952;100.608;2023-05-08T17:29:46;13.00;;;9.00;;
37169;SDS011;23062;13.952;100.608;2023-05-08T17:34:12;13.00;;;10.00;;
37169;SDS011;23062;13.952;100.608;2023-05-08T17:38:41;14.00;;;10.00;;
37169;SDS011;23062;13.952;100.608;2023-05-08T17:43:07;12.00;;;9.00;;
37169;SDS011;23062;13.952;100.608;2023-05-08T17:47:33;16.00;;;11.00;;
37169;SDS011;23062;13.952;100.608;2023-05-08T17:52:00;14.00;;;10.00;;
37169;SDS011;23062;13.952;100.608;2023-05-08T17:56:28;14.00;;;10.00;;
37169;SDS011;23062;13.952;100.608;2023-05-08T18:00:53;12.00;;;9.00;;
37169;SDS011;23062;13.952;100.608;2023-05-08T18:05:19;15.00;;;11.00;;
37169;SDS011;23062;13.952;100.608;2023-05-08T18:09:46;16.00;;;12.00;;
37169;SDS011;23062;13.952;100.608;2023-05-08T18:14:12;14.00;;;10.00;;
37169;SDS011;23062;13.952;100.608;2023-05-08T18:18:41;15.00;;;11.00;;
37169;SDS011;23062;13.952;100.608;2023-05-08T18:23:08;14.00;;;11.00;;
37169;SDS011;23062;13.952;100.608;2023-05-08T18:27:34;17.00;;;12.00;;
37169;SDS011;23062;13.952;100.608;2023-05-08T18:32:00;14.00;;;10.00;;
37169;SDS011;23062;13.952;100.608;2023-05-08T18:36:26;15.00;;;11.00;;
37169;SDS011;23062;13.952;100.608;2023-05-08T18:40:51;14.00;;;10.00;;
37169;SDS011;23062;13.952;100.608;2023-05-08T18:45:24;16.00;;;12.00;;
37169;SDS011;23062;13.952;100.608;2023-05-08T18:49:52;17.00;;;12.00;;
37169;SDS011;23062;13.952;100.608;2023-05-08T18:54:20;15.00;;;11.00;;
37169;SDS011;23062;13.952;100.608;2023-05-08T18:58:51;17.00;;;12.00;;
37169;SDS011;23062;13.952;100.608;2023-05-08T19:03:20;17.00;;;12.13;;
37169;SDS011;23062;13.952;100.608;2023-05-08T19:07:49;18.00;;;13.00;;
37169;SDS011;23062;13.952;100.608;2023-05-08T19:12:16;15.00;;;11.00;;
37169;SDS011;23062;13.952;100.608;2023-05-08T19:16:42;20.00;;;14.00;;
37169;SDS011;23062;13.952;100.608;2023-05-08T19:21:08;17.00;;;13.00;;
37169;SDS011;23062;13.952;100.608;2023-05-08T19:25:34;16.00;;;12.00;;
37169;SDS011;23062;13.952;100.608;2023-05-08T19:30:00;16.00;;;12.00;;
37169;SDS011;23062;13.952;100.608;2023-05-08T19:34:30;17.00;;;12.00;;
37169;SDS011;23062;13.952;100.608;2023-05-08T19:39:03;16.00;;;12.00;;
37169;SDS011;23062;13.952;100.608;2023-05-08T19:43:38;16.00;;;12.00;;
37169;SDS011;23062;13.952;100.608;2023-05-08T19:48:07;15.00;;;11.00;;
37169;SDS011;23062;13.952;100.608;2023-05-08T19:52:32;16.00;;;12.00;;
37169;SDS011;23062;13.952;100.608;2023-05-08T19:57:00;17.00;;;13.00;;
37169;SDS011;23062;13.952;100.608;2023-05-08T20:01:27;17.00;;;13.00;;
37169;SDS011;23062;13.952;100.608;2023-05-08T20:05:58;20.00;;;14.00;;
37169;SDS011;23062;13.952;100.608;2023-05-08T20:10:24;18.00;;;13.00;;
37169;SDS011;23062;13.952;100.608;2023-05-08T20:14:50;18.00;;;13.00;;
37169;SDS011;23062;13.952;100.608;2023-05-08T20:19:16;18.00;;;13.00;;
37169;SDS011;23062;13.952;100.608;2023-05-08T20:23:42;19.00;;;13.00;;
37169;SDS011;23062;13.952;100.608;2023-05-08T20:28:10;16.00;;;11.00;;
37169;SDS011;23062;13.952;100.608;2023-05-08T20:32:39;16.00;;;12.00;;
37169;SDS011;23062;13.952;100.608;2023-05-08T20:37:05;18.00;;;13.00;;
37169;SDS011;23062;13.952;100.608;2023-05-08T20:41:34;19.00;;;13.00;;
37169;SDS011;23062;13.952;100.608;2023-05-08T20:46:00;18.00;;;14.00;;
37169;SDS011;23062;13.952;100.608;2023-05-08T20:50:26;17.00;;;13.00;;
37169;SDS011;23062;13.952;100.608;2023-05-08T20:54:59;17.00;;;12.00;;
37169;SDS011;23062;13.952;100.608;2023-05-08T20:59:26;18.00;;;13.00;;
37169;SDS011;23062;13.952;100.608;2023-05-08T21:04:02;16.00;;;12.00;;
37169;SDS011;23062;13.952;100.608;2023-05-08T21:08:31;15.00;;;11.00;;
37169;SDS011;23062;13.952;100.608;2023-05-08T21:12:56;14.00;;;11.00;;
37169;SDS011;23062;13.952;100.608;2023-05-08T21:17:25;17.00;;;11.20;;
37169;SDS011;23062;13.952;100.608;2023-05-08T21:26:26;18.00;;;14.00;;
37169;SDS011;23062;13.952;100.608;2023-05-08T21:30:58;19.00;;;14.00;;
37169;SDS011;23062;13.952;100.608;2023-05-08T21:35:22;15.00;;;10.00;;
37169;SDS011;23062;13.952;100.608;2023-05-08T21:39:48;18.00;;;13.00;;
37169;SDS011;23062;13.952;100.608;2023-05-08T21:44:16;21.00;;;15.00;;
37169;SDS011;23062;13.952;100.608;2023-05-08T21:48:57;18.00;;;14.00;;
37169;SDS011;23062;13.952;100.608;2023-05-08T21:53:27;20.00;;;15.00;;
37169;SDS011;23062;13.952;100.608;2023-05-08T21:58:01;16.00;;;10.40;;
37169;SDS011;23062;13.952;100.608;2023-05-08T22:02:30;18.00;;;14.00;;
37169;SDS011;23062;13.952;100.608;2023-05-08T22:06:56;22.00;;;16.00;;
37169;SDS011;23062;13.952;100.608;2023-05-08T22:11:24;20.00;;;15.00;;
37169;SDS011;23062;13.952;100.608;2023-05-08T22:15:53;18.00;;;13.00;;
37169;SDS011;23062;13.952;100.608;2023-05-08T22:20:22;20.00;;;15.00;;
37169;SDS011;23062;13.952;100.608;2023-05-08T22:24:48;41.00;;;31.00;;
37169;SDS011;23062;13.952;100.608;2023-05-08T22:29:24;34.00;;;25.00;;
37169;SDS011;23062;13.952;100.608;2023-05-08T22:33:54;29.00;;;21.00;;
37169;SDS011;23062;13.952;100.608;2023-05-08T22:38:20;24.00;;;19.00;;
37169;SDS011;23062;13.952;100.608;2023-05-08T22:42:58;22.00;;;17.00;;
37169;SDS011;23062;13.952;100.608;2023-05-08T22:47:20;23.00;;;17.00;;
37169;SDS011;23062;13.952;100.608;2023-05-08T22:51:54;23.00;;;18.00;;
37169;SDS011;23062;13.952;100.608;2023-05-08T22:56:15;24.00;;;18.00;;
37169;SDS011;23062;13.952;100.608;2023-05-08T23:00:44;22.00;;;16.00;;
37169;SDS011;23062;13.952;100.608;2023-05-08T23:05:16;23.00;;;17.00;;
37169;SDS011;23062;13.952;100.608;2023-05-08T23:09:44;19.00;;;14.00;;
37169;SDS011;23062;13.952;100.608;2023-05-08T23:14:10;21.00;;;16.00;;
37169;SDS011;23062;13.952;100.608;2023-05-08T23:18:38;22.00;;;17.00;;
37169;SDS011;23062;13.952;100.608;2023-05-08T23:23:05;21.00;;;16.00;;
37169;SDS011;23062;13.952;100.608;2023-05-08T23:27:32;25.00;;;18.00;;
37169;SDS011;23062;13.952;100.608;2023-05-08T23:32:00;25.00;;;19.00;;
37169;SDS011;23062;13.952;100.608;2023-05-08T23:36:26;21.00;;;16.00;;
37169;SDS011;23062;13.952;100.608;2023-05-08T23:40:52;24.00;;;17.00;;
37169;SDS011;23062;13.952;100.608;2023-05-08T23:45:17;24.00;;;18.00;;
37169;SDS011;23062;13.952;100.608;2023-05-08T23:49:44;24.00;;;18.00;;
37169;SDS011;23062;13.952;100.608;2023-05-08T23:54:12;23.00;;;17.00;;
37169;SDS011;23062;13.952;100.608;2023-05-08T23:58:38;24.00;;;19.00;;
